Time;durP1;ratioP1;P1;durP2;ratioP2;P2;SDS_P1;SDS_P2;PMS_P1;PMS_P2;Temp;Humidity;BMP_temperature;BMP_pressure;BME280_temperature;BME280_humidity;BME280_pressure;Samples;Min_cycle;Max_cycle;Signal;HPM_P1;HPM_P2
2021/07/13 00:01:32;;;;;;;20.57;18.80;;;20.10;1.00;;;;;;5072457;28;20476;-79
2021/07/13 00:03:59;;;;;;;20.20;18.40;;;20.10;1.00;;;;;;5077751;28;20959;-79
2021/07/13 00:06:26;;;;;;;20.10;18.37;;;20.10;1.00;;;;;;5072178;28;20462;-79
2021/07/13 00:08:54;;;;;;;19.90;18.20;;;20.10;1.00;;;;;;5072173;28;20496;-79
2021/07/13 00:11:20;;;;;;;19.67;18.10;;;20.10;1.00;;;;;;5074741;28;21014;-79
2021/07/13 00:13:48;;;;;;;19.70;18.10;;;20.10;1.00;;;;;;5074304;28;20463;-79
2021/07/13 00:16:15;;;;;;;19.13;17.53;;;20.10;1.00;;;;;;5071443;28;20523;-78
2021/07/13 00:18:42;;;;;;;21.20;19.47;;;20.10;1.00;;;;;;5076370;28;21340;-79
2021/07/13 00:21:10;;;;;;;20.67;18.87;;;20.00;1.00;;;;;;5070253;28;20505;-78
2021/07/13 00:23:37;;;;;;;19.67;18.03;;;20.00;1.00;;;;;;5078043;28;20444;-79
2021/07/13 00:26:05;;;;;;;19.97;18.30;;;20.00;1.00;;;;;;5068505;28;20444;-79
2021/07/13 00:28:32;;;;;;;20.93;18.93;;;19.90;1.00;;;;;;5061776;28;20436;-79
2021/07/13 00:30:59;;;;;;;20.27;18.57;;;19.90;1.00;;;;;;5072212;28;22060;-78
2021/07/13 00:33:26;;;;;;;20.60;18.83;;;19.90;1.00;;;;;;5070792;28;21423;-78
2021/07/13 00:35:52;;;;;;;19.43;17.73;;;19.80;1.00;;;;;;5073704;28;20450;-78
2021/07/13 00:38:19;;;;;;;21.70;19.90;;;19.80;1.00;;;;;;5074647;28;20442;-78
2021/07/13 00:40:46;;;;;;;21.03;19.20;;;19.80;1.00;;;;;;5073673;28;20454;-78
2021/07/13 00:43:13;;;;;;;20.20;18.53;;;19.80;1.00;;;;;;5069937;28;20452;-78
2021/07/13 00:45:40;;;;;;;21.37;19.30;;;19.80;1.00;;;;;;5072113;28;20460;-78
2021/07/13 00:48:07;;;;;;;21.23;19.53;;;19.80;1.00;;;;;;5073407;28;21536;-79
2021/07/13 00:50:34;;;;;;;21.07;19.37;;;19.80;1.00;;;;;;5066962;28;20473;-78
2021/07/13 00:53:03;;;;;;;20.73;18.93;;;19.80;1.00;;;;;;5070894;28;20469;-78
2021/07/13 00:55:30;;;;;;;19.57;18.07;;;19.70;1.00;;;;;;5073100;28;20432;-78
2021/07/13 00:57:57;;;;;;;18.87;17.30;;;19.70;1.00;;;;;;5073171;28;20460;-78
2021/07/13 01:00:25;;;;;;;20.03;18.33;;;19.70;1.00;;;;;;5072681;28;21249;-79
2021/07/13 01:02:56;;;;;;;18.87;17.20;;;19.70;1.00;;;;;;5069150;28;20889;-78
2021/07/13 01:05:27;;;;;;;19.90;18.20;;;19.70;1.00;;;;;;5073567;28;20482;-79
2021/07/13 01:08:03;;;;;;;20.00;18.30;;;19.70;1.00;;;;;;5070452;28;20470;-80
2021/07/13 01:10:39;;;;;;;20.33;18.63;;;19.70;1.00;;;;;;5067978;28;20498;-78
2021/07/13 01:13:12;;;;;;;18.70;17.10;;;19.70;1.00;;;;;;5070113;28;20466;-77
2021/07/13 01:15:46;;;;;;;20.27;18.37;;;19.60;1.00;;;;;;5073414;28;20542;-78
2021/07/13 01:18:19;;;;;;;19.07;17.57;;;19.60;1.00;;;;;;5072456;28;20443;-78
2021/07/13 01:21:03;;;;;;;18.70;17.10;;;19.60;1.00;;;;;;5074372;28;20485;-78
2021/07/13 01:23:41;;;;;;;19.87;18.17;;;19.60;1.00;;;;;;5072035;28;20447;-78
2021/07/13 01:26:14;;;;;;;19.23;17.63;;;19.60;1.00;;;;;;5071681;28;20463;-78
2021/07/13 01:28:46;;;;;;;19.67;17.87;;;19.60;1.00;;;;;;5075388;28;20541;-79
2021/07/13 01:31:16;;;;;;;19.07;17.57;;;19.50;1.00;;;;;;5088789;28;20467;-78
2021/07/13 01:33:50;;;;;;;20.13;18.37;;;19.50;1.00;;;;;;5091397;28;20455;-78
2021/07/13 01:36:22;;;;;;;20.13;18.53;;;19.50;1.00;;;;;;5074529;28;21070;-78
2021/07/13 01:38:51;;;;;;;18.37;16.77;;;19.50;1.00;;;;;;5076476;28;20458;-78
2021/07/13 01:41:23;;;;;;;18.80;17.20;;;19.40;1.00;;;;;;5072067;28;20919;-78
2021/07/13 01:43:52;;;;;;;19.10;17.40;;;19.40;1.00;;;;;;5073142;28;20459;-79
2021/07/13 01:46:21;;;;;;;19.20;17.60;;;19.40;1.00;;;;;;5070438;28;20958;-78
2021/07/13 01:48:51;;;;;;;20.20;18.40;;;19.40;1.00;;;;;;5073233;28;20454;-77
2021/07/13 01:51:19;;;;;;;20.60;18.80;;;19.50;1.00;;;;;;5073970;28;21092;-78
2021/07/13 01:53:47;;;;;;;19.67;18.00;;;19.40;1.00;;;;;;5077626;28;20444;-78
2021/07/13 01:56:14;;;;;;;20.03;18.43;;;19.40;1.00;;;;;;5077162;28;20883;-79
2021/07/13 01:58:44;;;;;;;20.97;19.07;;;19.40;1.00;;;;;;5074008;28;20450;-79
2021/07/13 02:01:18;;;;;;;21.50;19.80;;;19.40;1.00;;;;;;5075526;28;20546;-79
2021/07/13 02:03:46;;;;;;;18.80;17.13;;;19.40;1.00;;;;;;5074282;28;20444;-78
2021/07/13 02:06:15;;;;;;;19.30;17.70;;;19.40;1.00;;;;;;5075369;28;20897;-78
2021/07/13 02:08:43;;;;;;;20.60;18.70;;;19.40;1.00;;;;;;5073579;28;20910;-77
2021/07/13 02:11:11;;;;;;;20.07;18.13;;;19.40;1.00;;;;;;5077677;28;20447;-79
2021/07/13 02:13:38;;;;;;;19.83;18.13;;;19.40;1.00;;;;;;5070886;28;20431;-79
2021/07/13 02:16:05;;;;;;;20.47;18.57;;;19.30;1.00;;;;;;5079175;28;20449;-80
2021/07/13 02:18:33;;;;;;;19.50;17.80;;;19.30;1.00;;;;;;5073388;28;20496;-80
2021/07/13 02:21:00;;;;;;;21.50;19.53;;;19.30;1.00;;;;;;5078723;28;21018;-78
2021/07/13 02:23:27;;;;;;;20.50;18.80;;;19.30;1.00;;;;;;5069518;28;20443;-78
2021/07/13 02:25:58;;;;;;;20.00;18.13;;;19.30;1.00;;;;;;5065805;28;20463;-78
2021/07/13 02:28:30;;;;;;;20.50;18.73;;;19.30;1.00;;;;;;5072208;28;20474;-78
2021/07/13 02:31:02;;;;;;;19.80;17.87;;;19.20;1.00;;;;;;5079064;27;20514;-78
2021/07/13 02:33:35;;;;;;;19.33;17.63;;;19.20;1.00;;;;;;5072634;28;21202;-78
2021/07/13 02:36:08;;;;;;;20.70;18.87;;;19.20;1.00;;;;;;5071549;28;20446;-79
2021/07/13 02:38:35;;;;;;;20.93;18.73;;;19.20;1.00;;;;;;5075693;28;20447;-78
2021/07/13 02:41:02;;;;;;;19.90;18.17;;;19.20;1.00;;;;;;5075216;28;20472;-79
2021/07/13 02:43:30;;;;;;;19.23;17.63;;;19.20;1.00;;;;;;5075632;28;21155;-78
2021/07/13 02:45:57;;;;;;;20.97;19.23;;;19.20;1.00;;;;;;5071222;28;20518;-78
2021/07/13 02:48:25;;;;;;;20.17;18.50;;;19.20;1.00;;;;;;5074512;28;20518;-78
2021/07/13 02:50:56;;;;;;;19.80;18.17;;;19.20;1.00;;;;;;5072130;28;20455;-77
2021/07/13 02:53:24;;;;;;;20.97;18.97;;;19.10;1.00;;;;;;5076604;28;20470;-77
2021/07/13 02:55:52;;;;;;;19.10;17.50;;;19.10;1.00;;;;;;5072369;28;20461;-78
2021/07/13 02:58:20;;;;;;;20.03;18.40;;;19.10;1.00;;;;;;5075997;28;20466;-78
2021/07/13 03:00:48;;;;;;;20.63;18.50;;;19.10;1.00;;;;;;5074213;28;20455;-78
2021/07/13 03:03:16;;;;;;;20.27;18.40;;;19.10;1.00;;;;;;5076469;28;20535;-78
2021/07/13 03:05:43;;;;;;;20.73;18.77;;;19.10;1.00;;;;;;5073727;28;20447;-77
2021/07/13 03:08:13;;;;;;;20.20;18.33;;;19.10;1.00;;;;;;5077731;28;20447;-78
2021/07/13 03:10:40;;;;;;;21.13;19.20;;;19.00;1.00;;;;;;5075084;28;21398;-76
2021/07/13 03:13:07;;;;;;;21.07;19.07;;;19.00;1.00;;;;;;5074858;28;20438;-79
2021/07/13 03:15:35;;;;;;;19.30;17.60;;;19.00;1.00;;;;;;5071803;28;20491;-78
2021/07/13 03:18:01;;;;;;;21.47;19.63;;;19.00;1.00;;;;;;5080539;28;20466;-78
2021/07/13 03:20:29;;;;;;;20.97;19.13;;;18.90;1.00;;;;;;5074690;28;21252;-78
2021/07/13 03:22:57;;;;;;;20.07;18.27;;;18.90;1.00;;;;;;5075071;28;20439;-78
2021/07/13 03:25:27;;;;;;;19.67;18.07;;;18.90;1.00;;;;;;5074138;28;20816;-78
2021/07/13 03:27:54;;;;;;;23.37;21.17;;;18.90;1.00;;;;;;5073302;28;20568;-78
2021/07/13 03:30:21;;;;;;;20.90;19.00;;;18.90;1.00;;;;;;5078801;28;20454;-78
2021/07/13 03:32:50;;;;;;;20.60;18.90;;;18.90;1.00;;;;;;5073308;28;21050;-79
2021/07/13 03:35:17;;;;;;;22.47;20.37;;;18.90;1.00;;;;;;5070176;28;20492;-77
2021/07/13 03:37:45;;;;;;;22.70;20.60;;;18.90;1.00;;;;;;5074979;28;20468;-77
2021/07/13 03:40:13;;;;;;;21.70;19.80;;;18.90;1.00;;;;;;5074835;28;21471;-78
2021/07/13 03:42:43;;;;;;;26.40;23.83;;;18.90;1.00;;;;;;5072363;28;24229;-78
2021/07/13 03:45:15;;;;;;;23.10;21.00;;;18.90;1.00;;;;;;5075634;28;20463;-78
2021/07/13 03:47:46;;;;;;;22.50;20.40;;;18.90;1.00;;;;;;5072377;28;20407;-78
2021/07/13 03:50:14;;;;;;;21.77;19.87;;;19.00;1.00;;;;;;5072794;28;20488;-79
2021/07/13 03:52:40;;;;;;;22.63;20.70;;;19.10;1.00;;;;;;5069717;28;21232;-77
2021/07/13 03:55:07;;;;;;;23.17;21.00;;;19.10;1.00;;;;;;5073853;28;20449;-79
2021/07/13 03:57:34;;;;;;;22.20;20.20;;;19.20;1.00;;;;;;5074942;28;20883;-81
2021/07/13 04:00:05;;;;;;;21.27;19.30;;;19.20;1.00;;;;;;5075947;28;20458;-81
2021/07/13 04:02:32;;;;;;;20.73;18.93;;;19.30;1.00;;;;;;5076128;28;20458;-79
2021/07/13 04:04:59;;;;;;;21.30;19.30;;;19.30;1.00;;;;;;5074374;28;20460;-78
2021/07/13 04:07:25;;;;;;;21.20;19.30;;;19.40;1.00;;;;;;5078534;28;21183;-79
2021/07/13 04:09:52;;;;;;;22.03;20.03;;;19.40;1.00;;;;;;5077087;28;20455;-79
2021/07/13 04:12:18;;;;;;;22.13;20.00;;;19.50;1.00;;;;;;5076374;28;20458;-79
2021/07/13 04:14:45;;;;;;;21.93;20.03;;;19.50;1.00;;;;;;5078157;28;21383;-78
2021/07/13 04:17:13;;;;;;;20.17;18.47;;;19.50;1.00;;;;;;5074685;28;20485;-79
2021/07/13 04:19:40;;;;;;;22.03;20.03;;;19.60;1.00;;;;;;5073913;28;20455;-80
2021/07/13 04:22:06;;;;;;;20.57;18.77;;;19.60;1.00;;;;;;5076858;28;20969;-78
2021/07/13 04:24:33;;;;;;;23.17;21.17;;;19.60;1.00;;;;;;5072219;28;20474;-78
2021/07/13 04:27:00;;;;;;;19.90;18.30;;;19.60;1.00;;;;;;5075051;28;20447;-78
2021/07/13 04:29:26;;;;;;;20.17;18.50;;;19.70;1.00;;;;;;5075171;28;20446;-78
2021/07/13 04:31:53;;;;;;;19.60;17.90;;;19.70;1.00;;;;;;5084433;28;20434;-78
2021/07/13 04:34:21;;;;;;;21.00;19.07;;;19.80;1.00;;;;;;5098550;28;20742;-79
2021/07/13 04:36:48;;;;;;;21.33;19.43;;;19.80;1.00;;;;;;5097921;28;20446;-78
2021/07/13 04:39:14;;;;;;;21.50;19.70;;;19.80;1.00;;;;;;5088285;28;20922;-78
2021/07/13 04:41:41;;;;;;;21.20;19.50;;;19.80;1.00;;;;;;5075876;28;20447;-79
2021/07/13 04:44:08;;;;;;;19.07;17.47;;;19.80;1.00;;;;;;5073335;28;20457;-78
2021/07/13 04:46:34;;;;;;;20.43;18.57;;;19.90;1.00;;;;;;5073022;28;21210;-79
2021/07/13 04:49:01;;;;;;;20.10;18.30;;;19.90;1.00;;;;;;5070197;28;20469;-78
2021/07/13 04:51:29;;;;;;;19.80;18.07;;;20.00;1.00;;;;;;5076598;28;21363;-77
2021/07/13 04:53:56;;;;;;;19.93;18.13;;;20.00;1.00;;;;;;5071486;28;20455;-77
2021/07/13 04:56:22;;;;;;;20.10;18.47;;;20.00;1.00;;;;;;5073750;28;20478;-78
2021/07/13 04:58:49;;;;;;;19.70;18.10;;;20.00;1.00;;;;;;5072706;28;20486;-81
2021/07/13 05:01:15;;;;;;;21.43;19.63;;;20.00;1.00;;;;;;5075764;28;20549;-78
2021/07/13 05:03:42;;;;;;;22.40;20.43;;;20.00;1.00;;;;;;5072121;28;20439;-77
2021/07/13 05:06:09;;;;;;;20.10;18.50;;;20.10;1.00;;;;;;5070723;28;21757;-78
2021/07/13 05:08:37;;;;;;;21.23;19.37;;;20.20;1.00;;;;;;5074403;28;20795;-78
2021/07/13 05:11:04;;;;;;;22.37;20.47;;;20.20;1.00;;;;;;5077159;28;20448;-79
2021/07/13 05:13:30;;;;;;;20.23;18.53;;;20.30;1.00;;;;;;5068302;28;20476;-79
2021/07/13 05:15:57;;;;;;;21.40;19.30;;;20.40;1.00;;;;;;5067259;28;20523;-78
2021/07/13 05:18:24;;;;;;;20.47;18.67;;;20.50;1.00;;;;;;5073704;28;20453;-82
2021/07/13 05:20:55;;;;;;;19.63;17.67;;;20.50;1.00;;;;;;5083550;28;20547;-79
2021/07/13 05:23:22;;;;;;;22.30;20.20;;;20.60;1.00;;;;;;5081542;28;20527;-80
2021/07/13 05:25:50;;;;;;;19.27;17.57;;;20.70;1.00;;;;;;5082355;28;20466;-79
2021/07/13 05:28:17;;;;;;;19.43;17.80;;;20.80;1.00;;;;;;5079917;28;20522;-78
2021/07/13 05:30:45;;;;;;;18.17;16.60;;;20.80;1.00;;;;;;5076977;28;21489;-79
2021/07/13 05:33:15;;;;;;;18.73;17.13;;;20.80;1.00;;;;;;5077488;28;21428;-79
2021/07/13 05:35:43;;;;;;;20.00;17.20;;;20.90;1.00;;;;;;5081300;28;20465;-79
2021/07/13 05:38:10;;;;;;;17.93;16.43;;;21.00;1.00;;;;;;5087208;28;20457;-80
2021/07/13 05:40:37;;;;;;;18.77;17.17;;;21.20;1.00;;;;;;5086811;28;20523;-79
2021/07/13 05:43:05;;;;;;;19.67;17.97;;;21.20;1.00;;;;;;5082453;28;20469;-80
2021/07/13 05:45:32;;;;;;;19.70;18.10;;;21.30;1.00;;;;;;5098748;28;20460;-80
2021/07/13 05:47:58;;;;;;;18.50;16.90;;;21.30;1.00;;;;;;5083399;28;20460;-83
2021/07/13 05:50:25;;;;;;;19.57;17.80;;;21.30;1.00;;;;;;5084605;28;20420;-80
2021/07/13 05:52:56;;;;;;;29.70;26.70;;;21.40;1.00;;;;;;5085503;28;20482;-81
2021/07/13 05:55:24;;;;;;;16.80;15.20;;;21.50;1.00;;;;;;5086539;28;20519;-80
2021/07/13 05:57:51;;;;;;;17.73;16.20;;;21.60;1.00;;;;;;5086562;28;20461;-82
2021/07/13 06:00:21;;;;;;;17.83;16.33;;;21.70;1.00;;;;;;5085028;28;20417;-80
2021/07/13 06:02:48;;;;;;;17.97;16.37;;;21.80;1.00;;;;;;5084998;28;20538;-80
2021/07/13 06:05:15;;;;;;;17.23;15.73;;;22.00;1.00;;;;;;5086396;28;20462;-79
2021/07/13 06:07:43;;;;;;;16.23;14.93;;;22.10;1.00;;;;;;5085752;28;21257;-81
2021/07/13 06:10:11;;;;;;;15.87;14.47;;;22.20;1.00;;;;;;5084221;28;20533;-81
2021/07/13 06:12:38;;;;;;;16.37;15.07;;;22.30;1.00;;;;;;5082157;28;20447;-80
2021/07/13 06:15:05;;;;;;;17.00;15.50;;;22.40;1.00;;;;;;5086498;28;20415;-81
2021/07/13 06:17:34;;;;;;;14.90;13.53;;;22.50;1.00;;;;;;5084372;28;20430;-81
2021/07/13 06:20:00;;;;;;;14.87;13.67;;;22.60;1.00;;;;;;5084367;28;20414;-81
2021/07/13 06:22:27;;;;;;;15.43;14.13;;;22.70;1.00;;;;;;5090446;28;20422;-81
2021/07/13 06:24:54;;;;;;;15.77;14.03;;;22.70;1.00;;;;;;5088808;28;20424;-81
2021/07/13 06:27:22;;;;;;;14.30;13.10;;;22.70;1.00;;;;;;5117064;27;20423;-82
2021/07/13 06:29:48;;;;;;;13.57;12.43;;;22.80;1.00;;;;;;5102458;28;20474;-81
2021/07/13 06:32:15;;;;;;;14.07;12.87;;;23.00;1.00;;;;;;5098876;28;20418;-79
2021/07/13 06:34:43;;;;;;;13.83;12.43;;;23.10;1.00;;;;;;5105121;27;20449;-81
2021/07/13 06:37:09;;;;;;;15.00;13.60;;;23.20;1.00;;;;;;5106423;28;20413;-79
2021/07/13 06:39:36;;;;;;;13.87;12.67;;;23.40;1.00;;;;;;5110198;27;20467;-80
2021/07/13 06:42:03;;;;;;;13.67;12.47;;;23.40;1.00;;;;;;5110492;27;20412;-78
2021/07/13 06:44:29;;;;;;;13.33;12.03;;;23.50;1.00;;;;;;5109517;27;20403;-79
2021/07/13 06:46:56;;;;;;;13.57;12.30;;;23.70;1.00;;;;;;5106318;27;20447;-80
2021/07/13 06:49:22;;;;;;;13.37;12.13;;;23.80;1.00;;;;;;5109799;27;20489;-79
2021/07/13 06:51:51;;;;;;;12.60;11.50;;;23.80;1.00;;;;;;5110576;27;21789;-80
2021/07/13 06:54:18;;;;;;;12.10;11.10;;;23.90;1.00;;;;;;5109097;27;20433;-79
2021/07/13 06:56:45;;;;;;;10.97;9.97;;;24.00;1.00;;;;;;5106967;27;20434;-77
2021/07/13 06:59:11;;;;;;;13.03;10.60;;;24.10;1.00;;;;;;5108843;27;20412;-79
2021/07/13 07:01:39;;;;;;;9.97;9.10;;;24.10;1.00;;;;;;5109264;27;20472;-80
2021/07/13 07:04:06;;;;;;;11.10;10.00;;;24.10;1.00;;;;;;5108588;27;20422;-79
2021/07/13 07:06:33;;;;;;;11.10;10.10;;;24.10;1.00;;;;;;5111431;27;20438;-79
2021/07/13 07:09:01;;;;;;;11.30;10.30;;;24.10;1.00;;;;;;5107193;27;20435;-76
2021/07/13 07:11:27;;;;;;;12.27;11.27;;;24.10;1.00;;;;;;5106799;27;20457;-79
2021/07/13 07:13:54;;;;;;;10.80;9.67;;;24.10;1.00;;;;;;5108925;27;20463;-79
2021/07/13 07:16:20;;;;;;;10.43;9.53;;;24.10;1.00;;;;;;5112014;27;20438;-80
2021/07/13 07:18:47;;;;;;;9.90;9.00;;;24.20;1.00;;;;;;5110596;27;20504;-80
2021/07/13 07:21:14;;;;;;;9.80;8.97;;;24.40;1.00;;;;;;5106107;27;20434;-80
2021/07/13 07:23:40;;;;;;;11.27;10.10;;;24.50;1.00;;;;;;5105908;27;20402;-80
2021/07/13 07:26:08;;;;;;;12.20;11.00;;;24.50;1.00;;;;;;5107867;27;20476;-80
2021/07/13 07:28:35;;;;;;;12.93;11.93;;;24.60;1.00;;;;;;5107994;27;21649;-78
2021/07/13 07:31:01;;;;;;;11.63;10.73;;;24.70;1.00;;;;;;5109745;27;20414;-80
2021/07/13 07:33:28;;;;;;;10.77;9.80;;;24.80;1.00;;;;;;5108633;27;20457;-79
2021/07/13 07:35:55;;;;;;;10.87;9.97;;;24.90;1.00;;;;;;5108892;27;20431;-81
2021/07/13 07:38:22;;;;;;;11.43;10.40;;;25.00;1.00;;;;;;5115818;22;20457;-77
2021/07/13 07:40:49;;;;;;;11.63;10.63;;;25.20;1.00;;;;;;5086912;27;20494;-77
2021/07/13 07:43:17;;;;;;;10.90;10.00;;;25.40;1.00;;;;;;5090670;27;20437;-77
2021/07/13 07:45:44;;;;;;;10.90;10.00;;;25.50;1.00;;;;;;5086180;27;20469;-76
2021/07/13 07:48:10;;;;;;;15.10;13.87;;;25.60;1.00;;;;;;5084222;27;21799;-78
2021/07/13 07:50:37;;;;;;;10.23;9.40;;;25.70;1.00;;;;;;5072023;28;20552;-77
2021/07/13 07:53:04;;;;;;;10.30;9.50;;;25.70;1.00;;;;;;5077170;28;20469;-76
2021/07/13 07:55:32;;;;;;;9.57;8.77;;;25.80;1.00;;;;;;5074613;28;20482;-76
2021/07/13 07:57:59;;;;;;;9.27;8.50;;;25.80;1.00;;;;;;5074577;28;20489;-76
2021/07/13 08:00:28;;;;;;;10.60;9.70;;;26.00;1.00;;;;;;5075436;28;20499;-74
2021/07/13 08:02:54;;;;;;;10.03;9.23;;;26.10;1.00;;;;;;5075118;28;20641;-75
2021/07/13 08:05:24;;;;;;;9.33;8.47;;;26.20;1.00;;;;;;5076014;28;20443;-77
2021/07/13 08:07:51;;;;;;;9.90;8.90;;;26.30;1.00;;;;;;5080320;28;20466;-77
2021/07/13 08:10:18;;;;;;;9.47;8.83;;;26.40;1.00;;;;;;5080720;28;20578;-78
2021/07/13 08:12:46;;;;;;;11.03;10.13;;;26.60;1.00;;;;;;5077491;28;20530;-76
2021/07/13 08:15:13;;;;;;;9.83;8.93;;;26.80;1.00;;;;;;5087013;28;20448;-79
2021/07/13 08:17:43;;;;;;;10.97;10.13;;;26.90;1.00;;;;;;5094472;28;20513;-77
2021/07/13 08:20:13;;;;;;;10.20;9.30;;;27.00;1.00;;;;;;5094690;28;20403;-77
2021/07/13 08:22:43;;;;;;;9.27;8.53;;;27.10;1.00;;;;;;5091219;28;20452;-78
2021/07/13 08:25:11;;;;;;;7.30;6.67;;;27.20;1.00;;;;;;5079238;28;20512;-76
2021/07/13 08:27:37;;;;;;;9.50;8.30;;;27.20;1.00;;;;;;5080925;28;20473;-78
2021/07/13 08:30:05;;;;;;;8.97;8.20;;;27.10;1.00;;;;;;5079363;28;20416;-78
2021/07/13 08:32:32;;;;;;;9.20;8.23;;;27.20;1.00;;;;;;5088489;28;21316;-76
2021/07/13 08:35:00;;;;;;;8.13;7.43;;;27.20;1.00;;;;;;5074457;28;20428;-77
2021/07/13 08:37:29;;;;;;;8.10;7.30;;;27.30;1.00;;;;;;5075165;28;20878;-78
2021/07/13 08:39:56;;;;;;;8.77;7.87;;;27.30;1.00;;;;;;5073100;28;20563;-77
2021/07/13 08:42:23;;;;;;;7.83;7.10;;;27.50;1.00;;;;;;5072257;28;20463;-80
2021/07/13 08:44:50;;;;;;;8.13;7.53;;;27.70;1.00;;;;;;5070267;28;20449;-78
2021/07/13 08:47:18;;;;;;;7.47;6.93;;;28.00;1.00;;;;;;5065720;28;20478;-77
2021/07/13 08:49:46;;;;;;;8.10;7.30;;;28.10;1.00;;;;;;5072849;28;20607;-77
2021/07/13 08:52:14;;;;;;;10.13;9.43;;;28.20;1.00;;;;;;5071786;28;20487;-77
2021/07/13 08:54:41;;;;;;;11.10;7.70;;;28.30;1.00;;;;;;5071702;28;20458;-79
2021/07/13 08:57:10;;;;;;;6.23;5.83;;;28.30;1.00;;;;;;5067160;28;20444;-80
2021/07/13 08:59:37;;;;;;;8.20;7.33;;;28.40;1.00;;;;;;5065753;28;20433;-77
2021/07/13 09:02:04;;;;;;;6.70;6.10;;;28.60;1.00;;;;;;5070797;28;20469;-78
2021/07/13 09:04:34;;;;;;;6.10;5.70;;;28.70;1.00;;;;;;5071840;28;20567;-78
2021/07/13 09:07:06;;;;;;;6.80;6.10;;;28.70;1.00;;;;;;5067078;28;20514;-78
2021/07/13 09:09:36;;;;;;;6.13;5.60;;;28.60;1.00;;;;;;5064801;28;20477;-73
2021/07/13 09:12:14;;;;;;;7.07;6.03;;;28.70;1.00;;;;;;5064518;28;20449;-74
2021/07/13 09:14:58;;;;;;;5.43;4.83;;;28.90;1.00;;;;;;5059048;28;21111;-72
2021/07/13 09:17:36;;;;;;;5.40;5.00;;;28.80;1.00;;;;;;5061937;28;20514;-75
2021/07/13 09:20:12;;;;;;;6.00;4.90;;;28.80;1.00;;;;;;5059818;28;20468;-74
2021/07/13 09:22:41;;;;;;;5.53;5.03;;;28.70;1.00;;;;;;5063259;28;20447;-75
2021/07/13 09:25:28;;;;;;;5.13;4.70;;;28.70;1.00;;;;;;5060987;28;20465;-74
2021/07/13 09:28:12;;;;;;;5.70;5.20;;;28.80;1.00;;;;;;5068008;28;20463;-73
2021/07/13 09:30:41;;;;;;;6.10;5.53;;;29.00;1.00;;;;;;5064192;28;20556;-72
2021/07/13 09:33:14;;;;;;;6.57;5.87;;;29.20;1.00;;;;;;5063336;28;20457;-74
2021/07/13 09:35:50;;;;;;;5.83;5.40;;;29.50;1.00;;;;;;5064422;28;20503;-75
2021/07/13 09:38:23;;;;;;;5.97;5.57;;;29.70;1.00;;;;;;5062476;28;20436;-72
2021/07/13 09:41:00;;;;;;;5.90;5.40;;;29.80;1.00;;;;;;5065871;28;20525;-73
2021/07/13 09:43:26;;;;;;;6.00;5.50;;;30.30;1.00;;;;;;5060127;28;20461;-76
2021/07/13 09:45:53;;;;;;;5.07;4.67;;;31.30;1.00;;;;;;5061980;28;20476;-74
2021/07/13 09:48:21;;;;;;;4.70;4.40;;;32.40;1.00;;;;;;5060350;28;20454;-73
2021/07/13 09:50:49;;;;;;;5.47;5.07;;;32.90;1.00;;;;;;5062077;28;20439;-73
2021/07/13 09:53:18;;;;;;;4.90;4.50;;;33.70;1.00;;;;;;5060560;28;20454;-76
2021/07/13 09:55:45;;;;;;;4.43;4.13;;;34.70;1.00;;;;;;5059105;28;20462;-74
2021/07/13 09:58:21;;;;;;;4.50;4.10;;;35.40;1.00;;;;;;5059406;28;20466;-75
2021/07/13 10:00:50;;;;;;;4.90;4.40;;;35.40;1.00;;;;;;5063950;28;20953;-75
2021/07/13 10:03:18;;;;;;;4.37;4.03;;;35.50;1.00;;;;;;5063405;28;20532;-74
2021/07/13 10:05:48;;;;;;;6.20;4.70;;;34.90;1.00;;;;;;5063226;28;20736;-74
2021/07/13 10:08:16;;;;;;;4.53;4.10;;;34.90;1.00;;;;;;5061228;28;20453;-73
2021/07/13 10:10:44;;;;;;;4.57;4.27;;;35.20;1.00;;;;;;5061984;28;20443;-75
2021/07/13 10:13:12;;;;;;;4.60;3.90;;;35.90;1.00;;;;;;5064607;28;21000;-75
2021/07/13 10:15:41;;;;;;;4.47;4.10;;;36.40;1.00;;;;;;5064559;28;20462;-76
2021/07/13 10:18:09;;;;;;;5.10;3.73;;;36.10;1.00;;;;;;5066156;28;21002;-76
2021/07/13 10:20:37;;;;;;;4.43;4.13;;;36.30;1.00;;;;;;5066886;28;20446;-74
2021/07/13 10:23:07;;;;;;;4.23;3.93;;;36.30;1.00;;;;;;5069417;28;20439;-75
2021/07/13 10:25:36;;;;;;;3.90;3.60;;;36.60;1.00;;;;;;5065743;28;20446;-75
2021/07/13 10:28:04;;;;;;;3.87;3.67;;;37.30;1.00;;;;;;5059643;28;21271;-76
2021/07/13 10:30:35;;;;;;;4.53;4.13;;;37.20;1.00;;;;;;5067272;28;20530;-75
2021/07/13 10:33:04;;;;;;;4.83;4.33;;;37.00;1.00;;;;;;5061829;28;20443;-76
2021/07/13 10:35:32;;;;;;;4.57;4.10;;;37.40;1.00;;;;;;5066152;28;20465;-74
2021/07/13 10:38:00;;;;;;;4.47;4.17;;;37.80;1.00;;;;;;5065341;28;20867;-74
2021/07/13 10:40:38;;;;;;;5.10;4.70;;;38.30;1.00;;;;;;5070822;28;20490;-75
2021/07/13 10:43:06;;;;;;;4.33;4.03;;;37.90;1.00;;;;;;5067488;28;20430;-76
2021/07/13 10:45:34;;;;;;;3.83;3.53;;;38.10;1.00;;;;;;5072062;28;20455;-75
2021/07/13 10:48:05;;;;;;;4.00;3.70;;;38.00;1.00;;;;;;5063823;28;20445;-76
2021/07/13 10:50:44;;;;;;;4.60;4.20;;;38.20;1.00;;;;;;5067813;28;20927;-76
2021/07/13 10:53:18;;;;;;;4.03;3.73;;;38.40;1.00;;;;;;5069489;28;20430;-75
2021/07/13 10:55:50;;;;;;;4.73;4.00;;;38.90;1.00;;;;;;5071348;28;20455;-76
2021/07/13 10:58:54;;;;;;;3.60;3.30;;;39.10;1.00;;;;;;5064047;28;20544;-74
2021/07/13 11:01:26;;;;;;;3.93;3.27;;;38.40;1.00;;;;;;5070903;28;20549;-74
2021/07/13 11:04:09;;;;;;;3.27;3.07;;;38.80;1.00;;;;;;5083684;27;20465;-72
2021/07/13 11:06:51;;;;;;;3.60;3.03;;;40.00;1.00;;;;;;5065743;28;20467;-75
2021/07/13 11:09:24;;;;;;;3.53;3.23;;;39.60;1.00;;;;;;5064054;28;20458;-74
2021/07/13 11:11:51;;;;;;;4.37;3.70;;;39.50;1.00;;;;;;5066750;28;20561;-75
2021/07/13 11:14:18;;;;;;;4.47;3.97;;;39.90;1.00;;;;;;5068821;28;20459;-74
2021/07/13 11:16:49;;;;;;;4.00;3.40;;;40.20;1.00;;;;;;5066824;28;20542;-76
2021/07/13 11:19:17;;;;;;;5.93;4.30;;;40.10;1.00;;;;;;5064528;28;20434;-75
2021/07/13 11:21:46;;;;;;;4.53;3.40;;;40.20;1.00;;;;;;5065746;28;20455;-74
2021/07/13 11:24:16;;;;;;;4.30;3.90;;;40.60;1.00;;;;;;5064986;28;20494;-77
2021/07/13 11:26:45;;;;;;;3.80;3.50;;;40.90;1.00;;;;;;5064708;28;20450;-75
2021/07/13 11:29:19;;;;;;;4.03;3.73;;;41.30;1.00;;;;;;5064312;28;20461;-74
2021/07/13 11:31:53;;;;;;;4.33;3.93;;;41.60;1.00;;;;;;5064519;28;20536;-74
2021/07/13 11:34:22;;;;;;;4.50;4.10;;;42.00;1.00;;;;;;5066319;28;20439;-73
2021/07/13 11:36:50;;;;;;;7.33;3.73;;;41.20;1.00;;;;;;5062495;28;20557;-73
2021/07/13 11:39:24;;;;;;;4.50;4.20;;;40.50;1.00;;;;;;5067328;28;20521;-75
2021/07/13 11:41:52;;;;;;;6.40;4.13;;;40.60;1.00;;;;;;5067580;28;20525;-72
2021/07/13 11:44:19;;;;;;;5.63;5.07;;;40.50;1.00;;;;;;5066974;28;20488;-75
2021/07/13 11:46:48;;;;;;;4.60;4.30;;;40.80;1.00;;;;;;5064597;28;20458;-74
2021/07/13 11:49:17;;;;;;;4.00;3.70;;;41.00;1.00;;;;;;5069038;28;20507;-75
2021/07/13 11:51:54;;;;;;;5.47;5.00;;;41.30;1.00;;;;;;5065673;28;20467;-75
2021/07/13 11:54:22;;;;;;;5.40;4.93;;;41.50;1.00;;;;;;5063551;28;20522;-75
2021/07/13 11:56:51;;;;;;;5.17;4.77;;;41.20;1.00;;;;;;5066718;28;21273;-73
2021/07/13 11:59:20;;;;;;;5.40;5.00;;;40.80;1.00;;;;;;5067976;28;20513;-74
2021/07/13 12:01:50;;;;;;;5.57;5.17;;;39.90;1.00;;;;;;5066395;28;21013;-73
2021/07/13 12:04:17;;;;;;;5.23;4.73;;;39.50;1.00;;;;;;5069752;28;20861;-75
2021/07/13 12:06:49;;;;;;;4.80;4.40;;;39.60;1.00;;;;;;5064639;28;20493;-76
2021/07/13 12:09:21;;;;;;;5.23;4.83;;;40.30;1.00;;;;;;5068239;28;20450;-75
2021/07/13 12:11:48;;;;;;;5.23;4.80;;;40.60;1.00;;;;;;5068741;28;20446;-74
2021/07/13 12:14:16;;;;;;;5.00;4.70;;;40.80;1.00;;;;;;5069214;28;20442;-75
2021/07/13 12:16:43;;;;;;;5.70;5.30;;;41.50;1.00;;;;;;5063598;28;20457;-76
2021/07/13 12:19:12;;;;;;;6.00;5.50;;;41.50;1.00;;;;;;5065531;28;20455;-75
2021/07/13 12:21:41;;;;;;;6.27;5.70;;;40.50;1.00;;;;;;5066091;28;20434;-75
2021/07/13 12:24:16;;;;;;;6.60;6.10;;;39.10;1.00;;;;;;5070465;28;20463;-75
2021/07/13 12:26:46;;;;;;;6.70;6.20;;;37.90;1.00;;;;;;5064555;28;20903;-75
2021/07/13 12:29:15;;;;;;;7.77;7.17;;;36.80;1.00;;;;;;5069241;28;20533;-76
2021/07/13 12:31:57;;;;;;;5.97;5.57;;;36.10;1.00;;;;;;5061102;28;20455;-74
2021/07/13 12:34:26;;;;;;;7.00;6.40;;;36.10;1.00;;;;;;5063304;28;20554;-75
2021/07/13 12:37:05;;;;;;;6.50;6.03;;;36.90;1.00;;;;;;5066928;28;20474;-74
2021/07/13 12:39:34;;;;;;;7.63;7.13;;;37.30;1.00;;;;;;5065954;28;20460;-73
2021/07/13 12:42:02;;;;;;;7.30;6.80;;;36.90;1.00;;;;;;5065928;28;20434;-73
2021/07/13 12:44:34;;;;;;;7.90;7.10;;;36.60;1.00;;;;;;5064224;28;21338;-74
2021/07/13 12:47:22;;;;;;;7.67;7.10;;;36.40;1.00;;;;;;5063687;28;20620;-75
2021/07/13 12:50:16;;;;;;;6.73;6.23;;;35.80;1.00;;;;;;5061656;28;20585;-75
2021/07/13 12:52:45;;;;;;;8.07;7.37;;;36.20;1.00;;;;;;5061017;28;20469;-75
2021/07/13 12:55:15;;;;;;;7.93;7.33;;;37.60;1.00;;;;;;5063382;28;20443;-74